Time;durP1;ratioP1;P1;durP2;ratioP2;P2;SDS_P1;SDS_P2;PMS_P1;PMS_P2;Temp;Humidity;BMP_temperature;BMP_pressure;BME280_temperature;BME280_humidity;BME280_pressure;Samples;Min_cycle;Max_cycle;Signal;HPM_P1;HPM_P2
2021/07/14 05:31:21;;;;;;;88.03;82.12;;;;;;;22.72;80.33;99804.83;1806110;75;27409;-67
2021/07/14 05:33:48;;;;;;;86.95;80.80;;;;;;;22.89;80.49;99806.50;1731827;80;27250;-67
2021/07/14 05:36:14;;;;;;;91.00;84.75;;;;;;;23.04;80.22;99797.55;1762238;78;25818;-67
2021/07/14 05:38:43;;;;;;;88.22;81.65;;;;;;;23.18;80.28;99799.42;1783114;78;26420;-67
2021/07/14 05:41:10;;;;;;;88.82;82.17;;;;;;;23.30;79.98;99801.08;1790141;78;25812;-67
2021/07/14 05:43:38;;;;;;;87.35;81.53;;;;;;;23.45;79.25;99796.22;1782004;78;27369;-67
2021/07/14 05:46:06;;;;;;;89.32;82.70;;;;;;;23.59;79.01;99796.67;1793095;78;25788;-67
2021/07/14 05:48:33;;;;;;;87.62;81.57;;;;;;;23.75;78.76;99790.61;1809474;78;25829;-67
2021/07/14 05:50:59;;;;;;;89.97;83.22;;;;;;;23.90;78.68;99789.86;1795052;78;25941;-66
2021/07/14 05:53:26;;;;;;;88.92;82.95;;;;;;;24.03;78.43;99795.03;1733568;81;25462;-67
2021/07/14 05:55:55;;;;;;;89.72;83.33;;;;;;;24.19;78.19;99787.52;1703255;81;27458;-67
2021/07/14 05:58:21;;;;;;;87.95;81.63;;;;;;;24.38;78.14;99794.41;1795946;78;25955;-66
2021/07/14 06:00:47;;;;;;;89.47;83.07;;;;;;;24.56;77.56;99797.55;1792330;78;25491;-67
2021/07/14 06:03:14;;;;;;;89.58;83.60;;;;;;;24.71;76.98;99798.91;1767278;80;25894;-66
2021/07/14 06:05:40;;;;;;;88.95;82.55;;;;;;;24.85;76.35;99797.13;1815844;78;25788;-67
2021/07/14 06:08:07;;;;;;;89.47;83.17;;;;;;;24.98;75.80;99799.50;1798822;78;28312;-67
2021/07/14 06:10:34;;;;;;;88.62;82.15;;;;;;;25.10;75.62;99798.90;1766707;78;25678;-67
2021/07/14 06:13:00;;;;;;;88.27;82.08;;;;;;;25.25;74.98;99800.03;1808858;78;25879;-67
2021/07/14 06:15:28;;;;;;;87.75;81.75;;;;;;;25.31;73.90;99800.55;1763756;78;25969;-66
2021/07/14 06:17:55;;;;;;;87.88;81.57;;;;;;;25.37;73.86;99802.83;1807625;78;25824;-67
2021/07/14 06:20:23;;;;;;;87.88;81.92;;;;;;;25.45;73.86;99798.73;1803606;78;27334;-66
2021/07/14 06:22:50;;;;;;;89.25;82.62;;;;;;;25.57;73.69;99802.26;1798649;77;25816;-67
2021/07/14 06:25:18;;;;;;;85.15;79.32;;;;;;;25.69;73.55;99800.28;1787990;78;25813;-67
2021/07/14 06:27:46;;;;;;;86.80;80.85;;;;;;;25.87;73.76;99802.69;1801510;78;26292;-67
2021/07/14 06:30:15;;;;;;;87.60;81.32;;;;;;;26.05;73.42;99803.76;1803975;77;25836;-67
2021/07/14 06:32:42;;;;;;;;;;;;;;;26.20;72.86;99807.61;1801966;77;27290;-67
2021/07/14 06:35:11;;;;;;;86.28;80.38;;;;;;;26.35;72.56;99801.94;1797388;78;26387;-67
2021/07/14 06:37:38;;;;;;;;;;;;;;;26.49;71.67;99800.84;1798869;78;25821;-67
2021/07/14 06:40:10;;;;;;;85.30;79.42;;;;;;;26.61;71.37;99800.20;1785849;78;26716;-67
2021/07/14 06:42:39;;;;;;;86.10;79.15;;;;;;;26.74;71.33;99800.31;1785848;78;25791;-67
2021/07/14 06:45:10;;;;;;;83.03;77.25;;;;;;;26.89;70.73;99806.31;1793569;78;27302;-67
2021/07/14 06:47:37;;;;;;;85.30;79.82;;;;;;;27.02;69.99;99805.00;1770250;79;25820;-67
2021/07/14 06:50:07;;;;;;;85.83;79.25;;;;;;;27.15;70.02;99793.38;1758780;78;25875;-70
2021/07/14 06:52:33;;;;;;;84.00;78.45;;;;;;;27.32;69.95;99792.78;1798254;78;25958;-70
2021/07/14 06:55:00;;;;;;;82.35;76.67;;;;;;;27.50;69.44;99790.17;1793169;78;25505;-70
2021/07/14 06:57:27;;;;;;;82.22;76.62;;;;;;;27.67;69.64;99797.82;1793821;78;27364;-70
2021/07/14 06:59:54;;;;;;;82.22;76.70;;;;;;;27.89;69.31;99792.45;1791599;78;25871;-70
2021/07/14 07:02:20;;;;;;;85.53;79.58;;;;;;;28.11;68.76;99790.67;1783432;78;25806;-70
2021/07/14 07:04:47;;;;;;;83.47;77.53;;;;;;;28.32;68.18;99792.03;1760214;78;26425;-70
2021/07/14 07:07:13;;;;;;;81.42;75.87;;;;;;;28.45;66.96;99785.69;1787549;78;25803;-70
2021/07/14 07:09:41;;;;;;;83.35;77.60;;;;;;;28.58;66.87;99793.46;1790561;78;27360;-70
2021/07/14 07:12:07;;;;;;;84.20;78.28;;;;;;;28.76;66.54;99795.70;1782837;78;25829;-70
2021/07/14 07:14:34;;;;;;;80.95;75.70;;;;;;;28.91;65.69;99789.03;1755689;78;25475;-70
2021/07/14 07:17:03;;;;;;;82.57;76.85;;;;;;;29.03;65.27;99785.48;1789875;78;25986;-71
2021/07/14 07:19:29;;;;;;;82.30;76.90;;;;;;;29.15;64.86;99787.27;1782951;78;25807;-71
2021/07/14 07:21:56;;;;;;;82.35;76.25;;;;;;;29.29;64.24;99787.45;1782444;78;27285;-70
2021/07/14 07:24:22;;;;;;;81.45;76.05;;;;;;;29.39;64.06;99783.52;1775691;78;26328;-70
2021/07/14 07:26:49;;;;;;;81.42;75.97;;;;;;;29.54;64.23;99776.22;1775532;78;25737;-70
2021/07/14 07:29:17;;;;;;;79.97;74.67;;;;;;;29.72;64.58;99777.58;1787553;78;25808;-70
2021/07/14 07:31:44;;;;;;;78.30;72.87;;;;;;;29.92;64.07;99771.72;1776373;78;25835;-71
2021/07/14 07:34:10;;;;;;;81.08;75.25;;;;;;;30.16;63.52;99781.77;1789617;78;27304;-71
2021/07/14 07:36:39;;;;;;;81.17;75.70;;;;;;;30.36;62.63;99780.05;1760291;79;25493;-71
2021/07/14 07:39:07;;;;;;;82.85;76.90;;;;;;;30.55;62.27;99776.70;1778354;79;25797;-71
2021/07/14 07:41:34;;;;;;;81.72;75.87;;;;;;;30.75;62.25;99778.31;1771868;79;26905;-71
2021/07/14 07:44:01;;;;;;;80.77;75.40;;;;;;;30.90;60.86;99778.68;1784796;78;25790;-71
2021/07/14 07:46:28;;;;;;;80.80;75.50;;;;;;;30.94;60.44;99786.93;1780444;79;27284;-71
2021/07/14 07:48:54;;;;;;;77.75;72.03;;;;;;;31.09;60.28;99785.70;1783863;78;26535;-71
2021/07/14 07:51:21;;;;;;;76.97;72.10;;;;;;;31.25;60.08;99785.42;1756600;78;25831;-71
2021/07/14 07:53:47;;;;;;;78.52;72.90;;;;;;;31.46;59.35;99792.72;1787900;78;25929;-71
2021/07/14 07:56:14;;;;;;;77.62;72.42;;;;;;;31.65;59.00;99792.12;1801449;78;25859;-71
2021/07/14 07:58:43;;;;;;;78.37;73.22;;;;;;;31.82;58.49;99786.38;1808413;77;27304;-71
2021/07/14 08:01:09;;;;;;;76.05;71.05;;;;;;;31.96;58.33;99784.16;1801459;78;25697;-71
2021/07/14 08:03:35;;;;;;;76.65;71.82;;;;;;;32.14;57.95;99776.39;1795617;78;25708;-71
2021/07/14 08:06:01;;;;;;;78.87;73.55;;;;;;;32.32;57.87;99769.34;1803660;78;26634;-71
2021/07/14 08:08:28;;;;;;;78.85;73.90;;;;;;;32.56;57.68;99774.98;1796885;78;25767;-71
2021/07/14 08:10:56;;;;;;;76.20;71.55;;;;;;;32.81;57.06;99775.83;1800012;78;28081;-72
2021/07/14 08:13:24;;;;;;;74.70;69.45;;;;;;;33.05;55.85;99777.84;1792261;78;25931;-72
2021/07/14 08:15:51;;;;;;;74.27;69.45;;;;;;;33.00;54.53;99776.48;1797261;77;25859;-72
2021/07/14 08:18:17;;;;;;;72.75;68.00;;;;;;;33.11;54.72;99780.14;1756403;78;25991;-72
2021/07/14 08:20:44;;;;;;;75.25;70.22;;;;;;;33.31;54.61;99783.12;1802761;78;25751;-73
2021/07/14 08:23:11;;;;;;;73.00;68.57;;;;;;;33.33;53.79;99788.26;1812713;76;27439;-72
2021/07/14 08:25:38;;;;;;;74.97;69.62;;;;;;;33.47;54.05;99788.91;1803463;77;25803;-72
2021/07/14 08:28:06;;;;;;;72.15;67.35;;;;;;;33.68;54.02;99791.27;1794292;78;25819;-72
2021/07/14 08:30:34;;;;;;;73.87;68.70;;;;;;;33.81;52.70;99790.98;1792683;78;25927;-72
2021/07/14 08:33:01;;;;;;;72.12;67.45;;;;;;;33.91;52.02;99787.45;1794174;78;25807;-72
2021/07/14 08:35:27;;;;;;;73.07;68.30;;;;;;;33.97;51.78;99787.55;1781082;78;27375;-73
2021/07/14 08:37:54;;;;;;;72.10;67.30;;;;;;;34.12;51.45;99786.91;1778642;78;25460;-73
2021/07/14 08:40:21;;;;;;;71.77;67.17;;;;;;;34.18;51.51;99792.00;1800021;78;25825;-71
2021/07/14 08:42:50;;;;;;;73.33;67.97;;;;;;;34.32;51.17;99793.27;1787814;78;26101;-72
2021/07/14 08:45:21;;;;;;;72.12;67.58;;;;;;;34.54;50.91;99792.08;1794760;77;25854;-74
2021/07/14 08:47:48;;;;;;;71.30;66.75;;;;;;;34.75;50.84;99796.52;1777671;78;27368;-72
2021/07/14 08:50:19;;;;;;;70.87;66.67;;;;;;;35.03;50.73;99805.19;1787614;78;25931;-72
2021/07/14 08:52:52;;;;;;;70.80;66.25;;;;;;;35.17;49.87;99809.95;1769054;79;25485;-73
2021/07/14 08:55:19;;;;;;;71.85;66.75;;;;;;;35.30;49.33;99810.41;1770147;78;26009;-74
2021/07/14 08:57:47;;;;;;;70.92;66.40;;;;;;;35.41;48.91;99808.34;1783546;78;25767;-74
2021/07/14 09:00:19;;;;;;;72.00;67.30;;;;;;;35.60;48.85;99818.66;1781546;78;27973;-72
2021/07/14 09:02:46;;;;;;;71.65;66.62;;;;;;;35.75;48.31;99807.98;1782714;79;25764;-73
2021/07/14 09:05:14;;;;;;;71.15;66.67;;;;;;;35.85;47.55;99814.98;1773166;78;25777;-74
2021/07/14 09:07:41;;;;;;;70.62;66.12;;;;;;;35.78;46.76;99807.77;1783043;78;25903;-74
2021/07/14 09:10:13;;;;;;;69.95;65.20;;;;;;;35.74;46.71;99810.03;1790992;78;25896;-74
2021/07/14 09:12:46;;;;;;;70.20;65.70;;;;;;;35.67;46.71;99798.55;1789014;78;27332;-74
2021/07/14 09:15:17;;;;;;;70.97;66.47;;;;;;;35.59;46.59;99800.87;1761904;79;25811;-74
2021/07/14 09:17:46;;;;;;;70.35;65.95;;;;;;;35.65;47.10;99808.74;1783851;78;25826;-74
2021/07/14 09:20:21;;;;;;;71.07;66.47;;;;;;;35.73;47.27;99805.66;1780401;79;25906;-75
2021/07/14 09:23:03;;;;;;;20.32;18.40;;;;;;;35.92;47.60;99811.73;1755733;78;25481;-74
2021/07/14 09:25:42;;;;;;;19.80;17.90;;;;;;;36.05;46.73;99816.33;1789673;78;29514;-75
2021/07/14 09:28:10;;;;;;;31.15;28.52;;;;;;;36.04;47.10;99814.02;1781916;78;25841;-74
2021/07/14 09:30:38;;;;;;;17.87;16.02;;;;;;;36.23;46.62;99813.05;1785614;78;32784;-75
2021/07/14 09:33:08;;;;;;;72.53;67.75;;;;;;;36.26;46.21;99810.65;1785568;78;25905;-75
2021/07/14 09:35:45;;;;;;;68.55;64.20;;;;;;;36.23;45.67;99802.55;1787883;78;25837;-75
2021/07/14 09:38:25;;;;;;;69.53;65.00;;;;;;;36.48;46.00;99807.88;1786140;78;27309;-73
2021/07/14 09:41:06;;;;;;;70.30;65.65;;;;;;;36.82;45.61;99806.07;1771473;79;25819;-74
2021/07/14 09:43:42;;;;;;;71.30;66.57;;;;;;;37.03;44.67;99801.05;1781487;78;25745;-68
2021/07/14 09:46:12;;;;;;;68.35;64.15;;;;;;;37.26;44.67;99800.54;1776025;79;26473;-68
2021/07/14 09:48:41;;;;;;;69.82;65.40;;;;;;;37.56;44.08;99803.71;1780359;79;25889;-68
2021/07/14 09:51:19;;;;;;;69.17;64.25;;;;;;;37.71;43.53;99802.08;1787481;78;27307;-68
2021/07/14 09:53:53;;;;;;;69.27;64.47;;;;;;;37.62;42.39;99810.77;1791748;78;35076;-69
2021/07/14 09:56:26;;;;;;;69.80;65.40;;;;;;;37.49;42.16;99815.47;1799050;77;25711;-68
2021/07/14 09:59:08;;;;;;;69.22;64.85;;;;;;;37.50;42.06;99812.02;1803838;77;25964;-68
2021/07/14 10:01:49;;;;;;;67.97;63.70;;;;;;;37.47;42.84;99813.80;1807674;77;25855;-68
2021/07/14 10:04:33;;;;;;;67.67;63.05;;;;;;;37.69;42.70;99813.77;1793360;78;28243;-68
2021/07/14 10:07:19;;;;;;;65.40;61.45;;;;;;;38.05;42.11;99821.12;1807518;78;25779;-68
2021/07/14 10:09:47;;;;;;;65.92;61.58;;;;;;;38.03;41.21;99819.45;1783938;78;25780;-68
2021/07/14 10:12:35;;;;;;;68.17;63.63;;;;;;;38.15;40.86;99821.67;1800689;78;25935;-68
2021/07/14 10:15:21;;;;;;;65.35;61.45;;;;;;;38.23;40.49;99809.35;1800887;78;25879;-67
2021/07/14 10:17:52;;;;;;;65.35;61.35;;;;;;;38.44;39.29;99823.20;1796237;78;26913;-67
2021/07/14 10:20:29;;;;;;;65.72;61.83;;;;;;;38.13;39.16;99819.36;1799755;78;25870;-68
2021/07/14 10:23:00;;;;;;;65.42;61.42;;;;;;;38.10;39.57;99815.47;1796540;78;25673;-68
2021/07/14 10:25:29;;;;;;;65.85;61.90;;;;;;;38.23;39.62;99811.41;1768401;79;27051;-68
2021/07/14 10:27:58;;;;;;;66.30;62.40;;;;;;;38.33;40.29;99816.92;1797463;78;25866;-68
2021/07/14 10:30:26;;;;;;;66.07;62.05;;;;;;;38.60;40.34;99817.42;1791914;78;27312;-68
2021/07/14 10:32:54;;;;;;;46.77;43.87;;;;;;;38.85;39.96;99817.75;1777788;78;25800;-68
2021/07/14 10:38:38;;;;;;;15.55;13.90;;;;;;;39.65;39.46;99822.47;1763983;79;25788;-74
2021/07/14 10:41:07;;;;;;;46.68;43.63;;;;;;;39.60;37.80;99817.61;1797912;78;25886;-74
2021/07/14 10:43:35;;;;;;;14.75;13.08;;;;;;;39.47;37.36;99827.30;1788495;78;27322;-73
2021/07/14 10:46:02;;;;;;;17.73;13.80;;;;;;;39.20;36.83;99824.10;1787469;78;25777;-74
2021/07/14 10:48:28;;;;;;;15.83;14.03;;;;;;;39.22;37.26;99828.59;1790899;78;25838;-74
2021/07/14 10:50:56;;;;;;;18.70;14.05;;;;;;;39.22;37.37;99832.17;1780359;79;26555;-74
2021/07/14 10:53:24;;;;;;;15.30;13.65;;;;;;;39.46;37.68;99830.02;1776118;78;25395;-74
2021/07/14 10:55:54;;;;;;;14.95;13.45;;;;;;;39.83;37.37;99828.78;1755211;79;27328;-73
2021/07/14 10:58:24;;;;;;;62.98;59.08;;;;;;;39.86;36.59;99832.77;1782560;78;25843;-73
2021/07/14 11:00:51;;;;;;;63.23;59.58;;;;;;;39.75;35.44;99827.17;1782031;78;25899;-74
2021/07/14 11:03:45;;;;;;;63.45;59.20;;;;;;;39.57;35.96;99833.59;1794487;78;25902;-73
2021/07/14 11:06:15;;;;;;;61.30;57.53;;;;;;;39.39;34.86;99833.52;1800559;77;25475;-74
2021/07/14 11:08:50;;;;;;;62.10;58.63;;;;;;;39.26;35.97;99823.41;1796019;77;27418;-73
2021/07/14 11:11:20;;;;;;;61.88;57.98;;;;;;;39.21;35.55;99821.38;1799719;78;25893;-73
2021/07/14 11:13:52;;;;;;;61.73;57.73;;;;;;;39.40;35.58;99823.75;1792639;78;25820;-73
2021/07/14 11:16:34;;;;;;;62.13;58.23;;;;;;;39.43;35.15;99819.75;1802492;77;25907;-74
2021/07/14 11:19:13;;;;;;;59.13;55.80;;;;;;;39.50;34.78;99825.63;1791170;78;26274;-74
2021/07/14 11:21:53;;;;;;;62.88;58.48;;;;;;;39.34;34.06;99815.16;1804298;78;27991;-74
2021/07/14 11:24:47;;;;;;;60.85;56.90;;;;;;;39.18;33.72;99826.03;1794476;78;25863;-67
2021/07/14 11:27:31;;;;;;;61.63;57.55;;;;;;;39.06;33.94;99827.34;1804010;77;26360;-67
2021/07/14 11:30:09;;;;;;;62.27;57.53;;;;;;;39.11;34.99;99830.80;1796360;78;26025;-68
2021/07/14 11:32:43;;;;;;;60.48;56.77;;;;;;;39.13;33.84;99834.52;1788980;78;33302;-68
2021/07/14 11:35:24;;;;;;;61.88;58.08;;;;;;;39.06;34.27;99829.41;1795309;78;27301;-68
2021/07/14 11:37:57;;;;;;;61.10;57.23;;;;;;;39.24;34.44;99826.00;1804260;77;25753;-68
2021/07/14 11:40:38;;;;;;;60.90;57.17;;;;;;;39.36;33.79;99821.82;1781746;79;25750;-68
2021/07/14 11:43:13;;;;;;;63.25;58.90;;;;;;;39.23;33.39;99815.34;1765206;79;25809;-67
2021/07/14 11:45:46;;;;;;;61.85;58.17;;;;;;;39.34;34.24;99818.75;1780381;78;25700;-66
2021/07/14 11:48:26;;;;;;;61.28;57.58;;;;;;;39.62;34.15;99818.51;1780922;78;27371;-67
2021/07/14 11:51:08;;;;;;;61.00;56.98;;;;;;;39.60;33.06;99821.20;1780737;78;25807;-67
2021/07/14 11:53:44;;;;;;;60.43;56.65;;;;;;;39.81;32.88;99818.64;1779675;78;25848;-68
2021/07/14 11:56:29;;;;;;;62.15;58.23;;;;;;;39.90;32.85;99826.83;1780212;78;25963;-68
2021/07/14 11:59:20;;;;;;;60.88;56.83;;;;;;;40.04;32.53;99824.95;1778001;79;25796;-67
2021/07/14 12:01:57;;;;;;;62.45;58.42;;;;;;;39.94;31.98;99827.33;1777572;79;27352;-67
2021/07/14 12:04:25;;;;;;;59.55;55.65;;;;;;;39.85;32.10;99821.97;1723769;81;25801;-68
2021/07/14 12:07:02;;;;;;;59.33;55.90;;;;;;;39.92;31.20;99818.56;1729702;81;25737;-68
2021/07/14 12:09:33;;;;;;;60.78;56.83;;;;;;;39.79;30.98;99817.75;1778889;78;26442;-68
2021/07/14 12:12:07;;;;;;;60.48;56.55;;;;;;;39.87;31.07;99820.80;1789330;78;25785;-68
2021/07/14 12:14:40;;;;;;;29.90;27.20;;;;;;;40.17;30.20;99825.73;1788448;78;27316;-69
2021/07/14 12:17:23;;;;;;;17.17;11.33;;;;;;;40.00;30.11;99820.98;1795511;78;25808;-74
2021/07/14 12:19:56;;;;;;;17.87;12.07;;;;;;;39.85;30.11;99813.48;1774519;78;25891;-74
2021/07/14 12:22:33;;;;;;;19.20;17.55;;;;;;;39.65;30.60;99811.15;1777847;79;25970;-74
2021/07/14 12:25:12;;;;;;;12.47;10.50;;;;;;;39.74;31.68;99813.68;1796006;78;25847;-74
2021/07/14 12:27:41;;;;;;;15.88;12.00;;;;;;;39.93;30.86;99815.25;1784079;77;27401;-74
2021/07/14 12:30:13;;;;;;;61.30;57.35;;;;;;;39.95;31.05;99805.57;1788771;78;25842;-74
2021/07/14 12:32:55;;;;;;;59.95;56.13;;;;;;;40.03;30.97;99797.92;1771203;79;25847;-75
2021/07/14 12:35:26;;;;;;;59.55;55.50;;;;;;;40.12;30.99;99805.44;1774646;79;25845;-73
2021/07/14 12:37:57;;;;;;;40.80;37.88;;;;;;;40.13;30.88;99801.95;1781110;79;25788;-74
2021/07/14 12:40:28;;;;;;;17.35;11.40;;;;;;;40.19;31.48;99806.17;1802651;78;27303;-74
2021/07/14 12:42:58;;;;;;;61.45;57.67;;;;;;;40.35;31.21;99799.56;1787384;78;25864;-75
2021/07/14 12:45:34;;;;;;;60.20;56.48;;;;;;;40.65;31.43;99802.39;1796277;77;25689;-75
2021/07/14 12:48:05;;;;;;;62.00;57.58;;;;;;;40.82;31.17;99806.48;1712783;81;25944;-75
2021/07/14 12:50:35;;;;;;;61.25;57.45;;;;;;;40.85;30.39;99813.14;1741428;81;25480;-74
2021/07/14 12:53:02;;;;;;;61.45;57.23;;;;;;;40.64;29.96;99802.92;1773458;78;27173;-75
2021/07/14 12:55:31;;;;;;;60.58;56.63;;;;;;;40.62;30.49;99802.03;1769935;78;25911;-75
2021/07/14 12:58:05;;;;;;;60.48;56.33;;;;;;;40.76;30.49;99805.73;1802992;78;25469;-75
2021/07/14 13:00:33;;;;;;;60.95;56.85;;;;;;;40.87;30.50;99799.22;1791042;77;26473;-75
2021/07/14 13:03:06;;;;;;;59.88;56.25;;;;;;;40.90;30.42;99800.97;1783748;77;25464;-75
2021/07/14 13:05:34;;;;;;;59.63;55.90;;;;;;;41.04;30.61;99805.45;1747551;80;27345;-75
2021/07/14 13:08:14;;;;;;;60.48;56.55;;;;;;;40.91;29.16;99801.09;1770468;78;25890;-74
2021/07/14 13:10:42;;;;;;;60.48;56.63;;;;;;;40.63;29.33;99791.45;1771380;79;25897;-67
2021/07/14 13:13:12;;;;;;;59.55;55.80;;;;;;;40.38;29.57;99790.05;1776192;79;25954;-68
2021/07/14 13:15:41;;;;;;;59.18;55.08;;;;;;;40.03;29.45;99793.02;1732558;81;25773;-68
2021/07/14 13:18:14;;;;;;;59.73;55.90;;;;;;;39.77;29.63;99790.63;1773242;79;28318;-68
2021/07/14 13:20:51;;;;;;;61.92;57.00;;;;;;;39.73;30.05;99785.91;1785313;78;26003;-68
2021/07/14 13:23:27;;;;;;;61.20;56.88;;;;;;;39.76;30.33;99798.35;1793009;78;25839;-66
2021/07/14 13:25:56;;;;;;;60.35;56.63;;;;;;;39.77;30.85;99787.14;1761668;78;25880;-67
2021/07/14 13:28:36;;;;;;;60.12;56.18;;;;;;;39.83;30.42;99794.81;1757367;79;25826;-67
2021/07/14 13:31:07;;;;;;;59.90;55.90;;;;;;;39.68;30.50;99790.30;1765304;78;27184;-69
2021/07/14 13:33:43;;;;;;;61.15;57.15;;;;;;;39.58;30.54;99784.19;1788779;78;25795;-67
2021/07/14 13:36:14;;;;;;;60.12;55.92;;;;;;;39.67;30.37;99783.75;1780685;78;25685;-68
2021/07/14 13:38:56;;;;;;;60.35;56.55;;;;;;;39.85;30.90;99795.08;1779270;78;25982;-66
2021/07/14 13:41:37;;;;;;;60.35;56.63;;;;;;;40.01;30.36;99788.53;1785231;78;25774;-68
2021/07/14 13:44:12;;;;;;;59.80;55.92;;;;;;;40.14;30.32;99787.27;1789332;78;28033;-67
2021/07/14 13:46:44;;;;;;;59.18;55.45;;;;;;;40.12;30.02;99784.86;1790782;78;25844;-68
2021/07/14 13:49:16;;;;;;;59.25;55.50;;;;;;;40.09;30.49;99780.24;1789025;78;25757;-68
2021/07/14 13:51:57;;;;;;;59.03;54.98;;;;;;;40.18;30.54;99786.22;1785742;78;25983;-68
2021/07/14 13:54:41;;;;;;;59.55;55.60;;;;;;;40.30;30.95;99789.81;1786244;78;25765;-67
2021/07/14 13:57:13;;;;;;;61.50;57.35;;;;;;;40.49;31.81;99791.98;1781685;79;27319;-68
2021/07/14 13:59:47;;;;;;;60.17;56.33;;;;;;;40.70;31.90;99786.63;1770230;79;25435;-68
2021/07/14 14:02:33;;;;;;;61.18;57.23;;;;;;;40.65;30.63;99782.55;1722251;81;26436;-75
2021/07/14 14:05:07;;;;;;;60.33;56.55;;;;;;;40.67;30.92;99780.60;1787521;78;25964;-76
2021/07/14 14:07:37;;;;;;;61.00;57.20;;;;;;;40.68;30.60;99786.40;1783864;77;25485;-76
2021/07/14 14:10:14;;;;;;;60.25;56.42;;;;;;;40.48;30.36;99781.97;1798388;78;27307;-76
2021/07/14 14:12:51;;;;;;;60.08;56.10;;;;;;;40.36;30.60;99774.20;1718765;81;26370;-76
2021/07/14 14:15:29;;;;;;;60.33;56.68;;;;;;;40.29;31.19;99771.30;1713471;81;25865;-76
2021/07/14 14:17:58;;;;;;;59.88;56.20;;;;;;;40.26;31.24;99773.77;1674412;82;26696;-76
2021/07/14 14:20:29;;;;;;;62.33;58.35;;;;;;;40.14;31.01;99773.11;1722460;80;25840;-69
2021/07/14 14:22:59;;;;;;;59.90;56.00;;;;;;;39.91;31.33;99768.27;1713471;81;27344;-68
2021/07/14 14:25:30;;;;;;;61.50;57.27;;;;;;;39.73;32.17;99763.27;1710173;81;25951;-67
2021/07/14 14:28:00;;;;;;;62.40;57.58;;;;;;;39.70;32.13;99761.48;1709287;81;26495;-67
2021/07/14 14:30:29;;;;;;;61.68;57.85;;;;;;;39.58;31.98;99752.30;1712497;81;25981;-67
2021/07/14 14:32:58;;;;;;;60.92;56.77;;;;;;;39.54;31.60;99757.48;1716381;81;25847;-73
2021/07/14 14:35:28;;;;;;;61.42;57.33;;;;;;;39.49;31.37;99761.12;1777321;78;27387;-74
2021/07/14 14:37:56;;;;;;;62.20;58.15;;;;;;;39.45;31.37;99756.34;1777315;78;25453;-74
2021/07/14 14:40:25;;;;;;;63.08;58.80;;;;;;;39.37;31.41;99756.14;1774050;79;25476;-75
2021/07/14 14:42:54;;;;;;;62.90;58.90;;;;;;;39.33;31.84;99749.98;1779864;78;25915;-75
2021/07/14 14:45:21;;;;;;;62.10;57.93;;;;;;;39.41;32.36;99776.42;1773688;78;25797;-75
2021/07/14 14:47:49;;;;;;;64.03;59.42;;;;;;;39.16;32.63;99752.91;1782093;78;27324;-74
2021/07/14 14:50:19;;;;;;;63.00;58.87;;;;;;;39.06;32.46;99750.25;1779462;77;25812;-75
2021/07/14 14:52:46;;;;;;;62.90;58.55;;;;;;;38.98;32.30;99750.02;1789133;78;25831;-76
2021/07/14 14:55:15;;;;;;;64.05;59.30;;;;;;;38.85;32.18;99738.61;1795988;78;25936;-74
2021/07/14 14:57:43;;;;;;;64.07;59.83;;;;;;;38.75;32.78;99740.84;1774975;79;25467;-74
2021/07/14 15:00:13;;;;;;;62.93;59.00;;;;;;;38.64;33.03;99741.01;1774129;79;28062;-75
2021/07/14 15:02:40;;;;;;;64.15;60.03;;;;;;;38.54;33.49;99746.79;1780936;79;25811;-75
2021/07/14 15:05:08;;;;;;;63.80;59.63;;;;;;;38.41;33.95;99748.73;1796317;78;25855;-77
2021/07/14 15:07:34;;;;;;;62.83;58.97;;;;;;;38.24;34.69;99747.34;1775341;78;26036;-75
2021/07/14 15:10:02;;;;;;;64.27;60.40;;;;;;;38.06;35.59;99749.28;1790132;78;25880;-77
2021/07/14 15:12:29;;;;;;;65.12;60.48;;;;;;;37.93;35.89;99751.95;1801056;78;27533;-75
2021/07/14 15:14:55;;;;;;;65.42;61.18;;;;;;;37.83;36.33;99758.38;1802764;78;25667;-76
2021/07/14 15:17:23;;;;;;;68.55;64.12;;;;;;;37.74;36.59;99757.98;1808117;77;25756;-76
2021/07/14 15:19:50;;;;;;;71.87;66.50;;;;;;;37.63;36.64;99753.08;1792429;77;25978;-75
2021/07/14 15:22:19;;;;;;;67.95;63.48;;;;;;;37.54;36.97;99758.95;1786749;78;25780;-76
2021/07/14 15:24:55;;;;;;;66.42;61.80;;;;;;;37.41;37.13;99754.43;1798792;77;27354;-75
2021/07/14 15:30:05;;;;;;;66.12;61.92;;;;;;;37.16;37.77;99761.89;1779877;79;25889;-69
2021/07/14 15:32:31;;;;;;;66.42;62.10;;;;;;;36.96;38.04;99755.03;1759007;79;26002;-69
2021/07/14 15:34:58;;;;;;;66.35;62.25;;;;;;;36.81;38.31;99763.66;1790317;78;26922;-67
2021/07/14 15:37:24;;;;;;;72.67;67.20;;;;;;;36.67;38.70;99761.13;1789812;78;27280;-74
2021/07/14 15:39:51;;;;;;;69.77;64.03;;;;;;;36.52;39.01;99757.72;1786422;78;25759;-75
2021/07/14 15:42:18;;;;;;;67.42;62.78;;;;;;;36.42;39.05;99759.34;1786669;78;25896;-75
2021/07/14 15:44:45;;;;;;;66.75;62.43;;;;;;;36.31;38.98;99756.44;1791297;78;25921;-74
2021/07/14 15:47:11;;;;;;;66.65;62.50;;;;;;;36.23;39.40;99749.07;1752417;80;25487;-75
2021/07/14 15:49:42;;;;;;;69.45;64.62;;;;;;;36.15;39.68;99753.61;1780760;78;27390;-75
2021/07/14 15:52:06;;;;;;;68.52;64.00;;;;;;;36.13;39.49;99757.54;1778161;78;35415;-75
2021/07/14 15:54:33;;;;;;;69.17;64.55;;;;;;;36.08;40.30;99749.82;1790344;78;25795;-74
2021/07/14 15:56:59;;;;;;;68.50;64.22;;;;;;;35.97;40.45;99750.52;1792364;78;25899;-74
2021/07/14 15:59:25;;;;;;;69.03;63.87;;;;;;;35.86;41.16;99755.42;1780553;78;26985;-75
2021/07/14 16:01:52;;;;;;;76.65;71.47;;;;;;;35.77;41.75;99748.55;1778191;78;28066;-75
2021/07/14 16:04:20;;;;;;;71.07;66.37;;;;;;;35.67;42.02;99747.14;1751609;79;25507;-75
2021/07/14 16:06:47;;;;;;;70.30;65.67;;;;;;;35.57;42.28;99739.52;1785340;78;25594;-75
2021/07/14 16:09:13;;;;;;;69.22;64.40;;;;;;;35.47;42.69;99737.50;1795113;78;25918;-74
2021/07/14 16:11:40;;;;;;;69.00;64.62;;;;;;;35.38;43.52;99735.48;1791153;77;25902;-75
2021/07/14 16:14:06;;;;;;;69.37;65.12;;;;;;;35.29;43.51;99732.95;1789692;78;27274;-75
2021/07/14 16:16:33;;;;;;;70.10;65.45;;;;;;;35.21;43.95;99724.78;1790639;78;25883;-74
2021/07/14 16:18:59;;;;;;;70.30;65.47;;;;;;;35.15;44.63;99718.34;1802142;77;25764;-75
2021/07/14 16:21:26;;;;;;;69.75;65.40;;;;;;;35.08;44.83;99711.76;1794587;78;26567;-74
2021/07/14 16:23:52;;;;;;;70.50;65.45;;;;;;;35.04;45.29;99711.19;1790649;77;25808;-75
2021/07/14 16:26:19;;;;;;;71.62;66.72;;;;;;;34.97;46.09;99707.55;1793021;78;27389;-75
2021/07/14 16:28:46;;;;;;;72.30;67.12;;;;;;;34.90;46.27;99703.73;1793382;77;25832;-74
2021/07/14 16:31:14;;;;;;;73.00;68.07;;;;;;;34.82;45.77;99699.84;1792992;78;25678;-75
2021/07/14 16:33:41;;;;;;;73.17;68.35;;;;;;;34.76;45.82;99705.36;1799640;78;26791;-74
2021/07/14 16:36:08;;;;;;;75.08;70.08;;;;;;;34.71;45.91;99699.05;1804973;77;25483;-69
2021/07/14 16:38:38;;;;;;;76.62;71.35;;;;;;;34.64;46.81;99695.87;1787769;78;27391;-69
2021/07/14 16:41:05;;;;;;;72.95;68.10;;;;;;;34.56;46.71;99697.66;1778243;78;25401;-69
2021/07/14 16:43:31;;;;;;;73.45;68.65;;;;;;;34.51;46.56;99703.97;1756219;80;25619;-69
2021/07/14 16:45:58;;;;;;;72.75;67.50;;;;;;;34.48;46.78;99699.36;1803545;78;25937;-69
2021/07/14 16:48:24;;;;;;;76.30;70.83;;;;;;;34.46;47.39;99697.66;1798740;78;25787;-69
2021/07/14 16:50:51;;;;;;;74.60;69.12;;;;;;;34.38;47.59;99702.16;1734866;81;27305;-70
2021/07/14 16:53:18;;;;;;;73.70;68.35;;;;;;;34.31;47.40;99701.93;1783256;78;25817;-69
2021/07/14 16:55:44;;;;;;;71.70;67.17;;;;;;;34.23;47.15;99704.35;1777356;78;25849;-67
2021/07/14 16:58:11;;;;;;;72.17;67.47;;;;;;;34.15;47.54;99708.79;1756641;79;25909;-68
2021/07/14 17:00:37;;;;;;;73.50;68.57;;;;;;;34.05;47.80;99719.37;1777887;78;25870;-69
2021/07/14 17:03:04;;;;;;;73.92;68.83;;;;;;;33.98;47.56;99725.99;1780769;79;27308;-69
2021/07/14 17:05:30;;;;;;;73.80;68.87;;;;;;;33.91;47.96;99727.16;1775100;79;25811;-69
2021/07/14 17:07:57;;;;;;;73.35;68.47;;;;;;;33.84;48.32;99728.31;1784701;79;25779;-69